Pagina principale
METAR-TAF:

METAR-TAF

Aeroporti :

Winchester, Tennessee, Stati Uniti

latitudine: 35-10-39N, longitudine: 086-03-58W, altezza: 298 m

Osservazione

Il bollettino è stato emesso 34 minuti fa, alle 22:35 UTC
Vento calmo
Temperature 9°C
Umidità 93%
Pressione 1021 hPa
Visibilità: 16.1 km
Cielo sereno

METAR: KBGF 162235Z AUTO 00000KT 10SM CLR 09/08 A3016 RMK A01

Ora: 17:09 (23:09 UTC)


TAF: mancante

Osservazioni e previsioni meteorologiche di più di 4000 aeroporti (messaggi METAR e TAF).

Le stazioni disponibili sono rappresentate dai dischi gialli e rossi sulla carta.

Puntare il mouse per vedere il nome della stazione.

Clicca sopra per visualizzare le osservazioni e previsioni meteorologiche.

Per cambiare la mappa : fare clic sui pulsanti verdi con una croce nera per ingrandire, il pulsante verde con un trattino per diminuire, o sulla freccia verde per le mappe adiacenti.


METAR-TAF: